Belair, Louisiana
Current Conditions -  °F | °C
As of 12:55 PM on Tuesday 21 Oct 2014 (Local Time) from KNBG Reporting Station
Few Clouds Few Clouds  
Wind Chill: 78°   Ceiling: Unl
Heat Index: 79°   Visibility: 10mi
Dew Point: 51°   Wind: 13mph
Humidity: 39%   Direction: 40°NE
Pressure: 30.03"   Gusts: NA
Location:  29.7092°N, 89.8867°W
Report Text: KNBG 211755Z 04011KT 10SM FEW250 26/11 A3003 RMK AO2 SLP166 T02560106 10256 20128 58011 $
Loading
Personal Weather Stations






























Interactive Weather Map
Tropical Storm Tracking
New forecast layout! Learn more

10-Day Weather Forecast

Advertisements
Track Severe Weather on mobile